sensor_id;sensor_type;location;lat;lon;timestamp;pressure;altitude;pressure_sealevel;temperature;humidity
7026;BME280;3554;42.132;24.786;2023-03-13T00:01:26;99716.47;;;7.13;100.00
7026;BME280;3554;42.132;24.786;2023-03-13T00:03:54;99729.59;;;7.07;100.00
7026;BME280;3554;42.132;24.786;2023-03-13T00:06:23;99719.97;;;7.12;98.81
7026;BME280;3554;42.132;24.786;2023-03-13T00:08:51;99725.22;;;7.09;98.91
7026;BME280;3554;42.132;24.786;2023-03-13T00:11:18;99724.63;;;6.96;100.00
7026;BME280;3554;42.132;24.786;2023-03-13T00:13:45;99726.47;;;6.91;100.00
7026;BME280;3554;42.132;24.786;2023-03-13T00:16:12;99714.53;;;6.81;100.00
7026;BME280;3554;42.132;24.786;2023-03-13T00:18:44;99710.19;;;6.80;100.00
7026;BME280;3554;42.132;24.786;2023-03-13T00:21:11;99699.25;;;6.65;100.00
7026;BME280;3554;42.132;24.786;2023-03-13T00:23:39;99714.06;;;6.61;100.00
7026;BME280;3554;42.132;24.786;2023-03-13T00:26:08;99726.22;;;6.59;100.00
7026;BME280;3554;42.132;24.786;2023-03-13T00:28:36;99728.97;;;6.51;100.00
7026;BME280;3554;42.132;24.786;2023-03-13T00:31:04;99728.97;;;6.53;100.00
7026;BME280;3554;42.132;24.786;2023-03-13T00:33:32;99664.84;;;6.06;100.00
7026;BME280;3554;42.132;24.786;2023-03-13T00:35:59;99705.13;;;6.30;100.00
7026;BME280;3554;42.132;24.786;2023-03-13T00:38:27;99712.25;;;6.19;100.00
7026;BME280;3554;42.132;24.786;2023-03-13T00:40:59;99719.09;;;6.24;100.00
7026;BME280;3554;42.132;24.786;2023-03-13T00:43:26;99725.91;;;6.30;100.00
7026;BME280;3554;42.132;24.786;2023-03-13T00:45:53;99707.72;;;6.28;100.00
7026;BME280;3554;42.132;24.786;2023-03-13T00:48:20;99711.28;;;6.24;100.00
7026;BME280;3554;42.132;24.786;2023-03-13T00:50:47;99715.69;;;6.21;100.00
7026;BME280;3554;42.132;24.786;2023-03-13T00:53:14;99707.97;;;6.15;100.00
7026;BME280;3554;42.132;24.786;2023-03-13T00:55:50;99712.34;;;6.13;100.00
7026;BME280;3554;42.132;24.786;2023-03-13T00:58:19;99709.13;;;5.99;100.00
7026;BME280;3554;42.132;24.786;2023-03-13T01:00:45;99713.66;;;5.86;100.00
7026;BME280;3554;42.132;24.786;2023-03-13T01:03:12;99712.47;;;6.07;100.00
7026;BME280;3554;42.132;24.786;2023-03-13T01:05:39;99704.66;;;6.05;100.00
7026;BME280;3554;42.132;24.786;2023-03-13T01:08:06;99699.69;;;5.93;100.00
7026;BME280;3554;42.132;24.786;2023-03-13T01:10:33;99704.19;;;5.81;100.00
7026;BME280;3554;42.132;24.786;2023-03-13T01:13:00;99699.88;;;5.83;100.00
7026;BME280;3554;42.132;24.786;2023-03-13T01:15:33;99699.22;;;5.67;100.00
7026;BME280;3554;42.132;24.786;2023-03-13T01:18:00;99698.53;;;5.56;100.00
7026;BME280;3554;42.132;24.786;2023-03-13T01:20:28;99702.69;;;5.68;100.00
7026;BME280;3554;42.132;24.786;2023-03-13T01:22:55;99701.03;;;5.64;100.00
7026;BME280;3554;42.132;24.786;2023-03-13T01:25:21;99702.03;;;5.54;100.00
7026;BME280;3554;42.132;24.786;2023-03-13T01:27:48;99707.28;;;5.49;100.00
7026;BME280;3554;42.132;24.786;2023-03-13T01:30:15;99715.91;;;5.53;100.00
7026;BME280;3554;42.132;24.786;2023-03-13T01:32:44;99707.34;;;5.46;100.00
7026;BME280;3554;42.132;24.786;2023-03-13T01:35:10;99702.25;;;5.40;100.00
7026;BME280;3554;42.132;24.786;2023-03-13T01:37:37;99719.53;;;5.41;100.00
7026;BME280;3554;42.132;24.786;2023-03-13T01:40:05;99719.50;;;5.44;100.00
7026;BME280;3554;42.132;24.786;2023-03-13T01:42:50;99725.00;;;5.21;100.00
7026;BME280;3554;42.132;24.786;2023-03-13T01:48:26;99733.03;;;5.00;100.00
7026;BME280;3554;42.132;24.786;2023-03-13T01:50:56;99720.19;;;4.94;100.00
7026;BME280;3554;42.132;24.786;2023-03-13T01:53:24;99737.50;;;4.91;100.00
7026;BME280;3554;42.132;24.786;2023-03-13T01:55:52;99731.38;;;4.98;100.00
7026;BME280;3554;42.132;24.786;2023-03-13T01:58:20;99735.72;;;4.94;100.00
7026;BME280;3554;42.132;24.786;2023-03-13T02:00:48;99732.44;;;4.80;100.00
7026;BME280;3554;42.132;24.786;2023-03-13T02:03:17;99717.06;;;4.65;100.00
7026;BME280;3554;42.132;24.786;2023-03-13T02:05:48;99749.84;;;4.71;100.00
7026;BME280;3554;42.132;24.786;2023-03-13T02:08:17;99748.19;;;4.64;100.00
7026;BME280;3554;42.132;24.786;2023-03-13T02:10:50;99747.22;;;4.72;100.00
7026;BME280;3554;42.132;24.786;2023-03-13T02:13:17;99764.63;;;4.60;100.00
7026;BME280;3554;42.132;24.786;2023-03-13T02:15:46;99766.28;;;4.67;100.00
7026;BME280;3554;42.132;24.786;2023-03-13T02:18:13;99775.75;;;4.71;100.00
7026;BME280;3554;42.132;24.786;2023-03-13T02:20:41;99783.47;;;4.78;100.00
7026;BME280;3554;42.132;24.786;2023-03-13T02:23:14;99768.06;;;4.62;100.00
7026;BME280;3554;42.132;24.786;2023-03-13T02:25:44;99782.44;;;4.93;100.00
7026;BME280;3554;42.132;24.786;2023-03-13T02:28:15;99784.09;;;5.00;100.00
7026;BME280;3554;42.132;24.786;2023-03-13T02:30:44;99792.81;;;4.93;100.00
7026;BME280;3554;42.132;24.786;2023-03-13T02:33:12;99765.25;;;4.83;100.00
7026;BME280;3554;42.132;24.786;2023-03-13T02:35:41;99786.69;;;5.00;100.00
7026;BME280;3554;42.132;24.786;2023-03-13T02:38:10;99790.28;;;4.87;100.00
7026;BME280;3554;42.132;24.786;2023-03-13T02:40:41;99793.06;;;4.67;100.00
7026;BME280;3554;42.132;24.786;2023-03-13T02:43:12;99730.41;;;4.30;100.00
7026;BME280;3554;42.132;24.786;2023-03-13T02:45:41;99794.75;;;4.73;100.00
7026;BME280;3554;42.132;24.786;2023-03-13T02:48:07;99804.16;;;4.81;100.00
7026;BME280;3554;42.132;24.786;2023-03-13T02:50:35;99811.19;;;4.69;100.00
7026;BME280;3554;42.132;24.786;2023-03-13T02:53:04;99814.84;;;4.50;100.00
7026;BME280;3554;42.132;24.786;2023-03-13T02:55:36;99821.09;;;4.26;100.00
7026;BME280;3554;42.132;24.786;2023-03-13T02:58:04;99826.50;;;3.97;100.00
7026;BME280;3554;42.132;24.786;2023-03-13T03:00:32;99817.72;;;4.15;100.00
7026;BME280;3554;42.132;24.786;2023-03-13T03:03:00;99821.94;;;4.32;100.00
7026;BME280;3554;42.132;24.786;2023-03-13T03:05:27;99822.75;;;4.34;100.00
7026;BME280;3554;42.132;24.786;2023-03-13T03:07:53;99826.94;;;4.49;100.00
7026;BME280;3554;42.132;24.786;2023-03-13T03:10:20;99826.91;;;4.54;100.00
7026;BME280;3554;42.132;24.786;2023-03-13T03:12:47;99831.44;;;4.29;100.00
7026;BME280;3554;42.132;24.786;2023-03-13T03:15:14;99844.47;;;4.21;100.00
7026;BME280;3554;42.132;24.786;2023-03-13T03:17:42;99847.06;;;4.18;100.00
7026;BME280;3554;42.132;24.786;2023-03-13T03:20:10;99845.34;;;4.19;100.00
7026;BME280;3554;42.132;24.786;2023-03-13T03:22:37;99856.66;;;4.07;100.00
7026;BME280;3554;42.132;24.786;2023-03-13T03:25:06;99863.41;;;4.26;100.00
7026;BME280;3554;42.132;24.786;2023-03-13T03:27:33;99861.63;;;4.36;100.00
7026;BME280;3554;42.132;24.786;2023-03-13T03:30:01;99871.03;;;4.48;100.00
7026;BME280;3554;42.132;24.786;2023-03-13T03:32:28;99871.81;;;4.54;100.00
7026;BME280;3554;42.132;24.786;2023-03-13T03:34:56;99889.91;;;4.62;100.00
7026;BME280;3554;42.132;24.786;2023-03-13T03:37:23;99885.50;;;4.68;100.00
7026;BME280;3554;42.132;24.786;2023-03-13T03:39:49;99883.88;;;4.60;100.00
7026;BME280;3554;42.132;24.786;2023-03-13T03:42:16;99892.50;;;4.60;100.00
7026;BME280;3554;42.132;24.786;2023-03-13T03:44:43;99905.59;;;4.48;100.00
7026;BME280;3554;42.132;24.786;2023-03-13T03:47:10;99904.75;;;4.45;100.00
7026;BME280;3554;42.132;24.786;2023-03-13T03:49:36;99902.06;;;4.52;100.00
7026;BME280;3554;42.132;24.786;2023-03-13T03:52:05;99895.31;;;4.33;100.00
7026;BME280;3554;42.132;24.786;2023-03-13T03:54:32;99891.88;;;4.32;100.00
7026;BME280;3554;42.132;24.786;2023-03-13T03:56:59;99898.00;;;4.21;100.00
7026;BME280;3554;42.132;24.786;2023-03-13T03:59:26;99897.31;;;3.95;100.00
7026;BME280;3554;42.132;24.786;2023-03-13T04:01:52;99911.13;;;3.97;100.00
7026;BME280;3554;42.132;24.786;2023-03-13T04:04:19;99912.97;;;3.74;100.00
7026;BME280;3554;42.132;24.786;2023-03-13T04:06:46;99913.81;;;3.70;100.00
7026;BME280;3554;42.132;24.786;2023-03-13T04:09:14;99916.44;;;3.56;100.00
7026;BME280;3554;42.132;24.786;2023-03-13T04:11:41;99923.38;;;3.53;100.00
7026;BME280;3554;42.132;24.786;2023-03-13T04:14:08;99926.00;;;3.47;100.00
7026;BME280;3554;42.132;24.786;2023-03-13T04:16:34;99889.00;;;3.23;100.00
7026;BME280;3554;42.132;24.786;2023-03-13T04:19:01;99926.00;;;3.42;100.00
7026;BME280;3554;42.132;24.786;2023-03-13T04:21:28;99929.50;;;3.31;100.00
7026;BME280;3554;42.132;24.786;2023-03-13T04:23:55;99935.53;;;3.25;100.00
7026;BME280;3554;42.132;24.786;2023-03-13T04:26:23;99936.41;;;3.13;100.00
7026;BME280;3554;42.132;24.786;2023-03-13T04:28:50;99945.00;;;3.24;100.00
7026;BME280;3554;42.132;24.786;2023-03-13T04:31:17;99938.13;;;3.20;100.00
7026;BME280;3554;42.132;24.786;2023-03-13T04:33:43;99926.91;;;3.26;100.00
7026;BME280;3554;42.132;24.786;2023-03-13T04:36:10;99946.69;;;3.44;100.00
7026;BME280;3554;42.132;24.786;2023-03-13T04:38:37;99956.16;;;3.52;100.00
7026;BME280;3554;42.132;24.786;2023-03-13T04:41:04;99961.34;;;3.46;100.00
7026;BME280;3554;42.132;24.786;2023-03-13T04:43:32;99964.00;;;3.25;100.00
7026;BME280;3554;42.132;24.786;2023-03-13T04:45:59;99967.44;;;3.12;100.00
7026;BME280;3554;42.132;24.786;2023-03-13T04:48:25;99968.31;;;3.23;100.00
7026;BME280;3554;42.132;24.786;2023-03-13T04:50:52;99963.13;;;3.20;100.00
7026;BME280;3554;42.132;24.786;2023-03-13T04:53:19;99969.16;;;3.19;100.00
7026;BME280;3554;42.132;24.786;2023-03-13T04:55:46;99967.44;;;3.22;100.00
7026;BME280;3554;42.132;24.786;2023-03-13T04:58:14;99977.78;;;3.30;100.00
7026;BME280;3554;42.132;24.786;2023-03-13T05:00:42;99976.91;;;3.36;100.00
7026;BME280;3554;42.132;24.786;2023-03-13T05:03:08;99984.69;;;3.19;100.00
7026;BME280;3554;42.132;24.786;2023-03-13T05:05:35;99984.69;;;3.26;100.00
7026;BME280;3554;42.132;24.786;2023-03-13T05:08:02;99993.28;;;3.45;100.00
7026;BME280;3554;42.132;24.786;2023-03-13T05:10:30;99955.34;;;3.26;100.00
7026;BME280;3554;42.132;24.786;2023-03-13T05:12:57;99993.22;;;3.60;100.00
7026;BME280;3554;42.132;24.786;2023-03-13T05:15:23;99943.25;;;3.42;100.00
7026;BME280;3554;42.132;24.786;2023-03-13T05:17:52;100000.91;;;3.93;100.00
7026;BME280;3554;42.132;24.786;2023-03-13T05:20:18;100005.16;;;4.05;100.00
7026;BME280;3554;42.132;24.786;2023-03-13T05:22:45;100011.94;;;4.25;100.00
7026;BME280;3554;42.132;24.786;2023-03-13T05:25:12;100005.75;;;4.51;100.00
7026;BME280;3554;42.132;24.786;2023-03-13T05:27:38;100015.28;;;4.52;100.00
7026;BME280;3554;42.132;24.786;2023-03-13T05:30:06;100016.13;;;4.52;100.00
7026;BME280;3554;42.132;24.786;2023-03-13T05:32:33;100029.03;;;4.64;100.00
7026;BME280;3554;42.132;24.786;2023-03-13T05:35:01;100029.81;;;4.77;100.00
7026;BME280;3554;42.132;24.786;2023-03-13T05:37:28;100028.00;;;4.89;100.00
7026;BME280;3554;42.132;24.786;2023-03-13T05:39:55;100027.75;;;5.18;100.00
7026;BME280;3554;42.132;24.786;2023-03-13T05:42:22;100031.34;;;5.02;100.00
7026;BME280;3554;42.132;24.786;2023-03-13T05:44:49;100034.69;;;5.17;100.00
7026;BME280;3554;42.132;24.786;2023-03-13T05:47:16;100041.59;;;5.17;100.00
7026;BME280;3554;42.132;24.786;2023-03-13T05:49:43;100038.97;;;5.23;100.00
7026;BME280;3554;42.132;24.786;2023-03-13T05:52:11;100045.84;;;5.28;100.00
7026;BME280;3554;42.132;24.786;2023-03-13T05:54:38;100048.41;;;5.30;100.00
7026;BME280;3554;42.132;24.786;2023-03-13T05:57:05;100051.84;;;5.32;100.00
7026;BME280;3554;42.132;24.786;2023-03-13T05:59:31;100051.75;;;5.39;100.00
7026;BME280;3554;42.132;24.786;2023-03-13T06:01:58;100050.78;;;5.53;100.00
7026;BME280;3554;42.132;24.786;2023-03-13T06:04:25;100057.63;;;5.60;100.00
7026;BME280;3554;42.132;24.786;2023-03-13T06:06:52;100060.09;;;5.73;100.00
7026;BME280;3554;42.132;24.786;2023-03-13T06:09:20;100054.88;;;5.76;100.00
7026;BME280;3554;42.132;24.786;2023-03-13T06:11:47;100060.91;;;5.83;100.00
7026;BME280;3554;42.132;24.786;2023-03-13T06:14:14;100066.09;;;5.81;100.00
7026;BME280;3554;42.132;24.786;2023-03-13T06:16:40;100057.41;;;5.87;100.00
7026;BME280;3554;42.132;24.786;2023-03-13T06:19:07;100065.84;;;6.07;100.00
7026;BME280;3554;42.132;24.786;2023-03-13T06:21:34;100061.66;;;5.94;100.00
7026;BME280;3554;42.132;24.786;2023-03-13T06:24:01;100073.63;;;6.05;100.00
7026;BME280;3554;42.132;24.786;2023-03-13T06:26:29;100070.09;;;6.14;100.00
7026;BME280;3554;42.132;24.786;2023-03-13T06:28:55;100072.72;;;6.09;100.00
7026;BME280;3554;42.132;24.786;2023-03-13T06:31:22;100073.63;;;6.05;100.00
7026;BME280;3554;42.132;24.786;2023-03-13T06:33:52;100079.56;;;6.16;100.00
7026;BME280;3554;42.132;24.786;2023-03-13T06:36:19;100081.13;;;6.32;100.00
7026;BME280;3554;42.132;24.786;2023-03-13T06:38:45;100080.22;;;6.36;100.00
7026;BME280;3554;42.132;24.786;2023-03-13T06:41:12;100077.41;;;6.53;100.00
7026;BME280;3554;42.132;24.786;2023-03-13T06:43:40;100072.19;;;6.51;100.00
7026;BME280;3554;42.132;24.786;2023-03-13T06:46:10;100076.50;;;6.54;100.00
7026;BME280;3554;42.132;24.786;2023-03-13T06:48:41;100070.19;;;6.72;100.00
7026;BME280;3554;42.132;24.786;2023-03-13T06:51:10;100072.84;;;6.69;100.00
7026;BME280;3554;42.132;24.786;2023-03-13T06:53:37;100076.88;;;6.89;100.00
7026;BME280;3554;42.132;24.786;2023-03-13T06:56:04;100072.97;;;7.17;100.00
7026;BME280;3554;42.132;24.786;2023-03-13T06:58:31;100079.66;;;7.35;100.00
7026;BME280;3554;42.132;24.786;2023-03-13T07:01:05;100075.44;;;7.28;100.00
7026;BME280;3554;42.132;24.786;2023-03-13T07:03:32;100052.06;;;7.23;100.00
7026;BME280;3554;42.132;24.786;2023-03-13T07:05:58;100066.47;;;7.45;100.00
7026;BME280;3554;42.132;24.786;2023-03-13T07:08:26;100068.81;;;7.59;100.00
7026;BME280;3554;42.132;24.786;2023-03-13T07:10:57;100055.72;;;7.62;100.00
7026;BME280;3554;42.132;24.786;2023-03-13T07:13:24;100051.41;;;7.61;100.00
7026;BME280;3554;42.132;24.786;2023-03-13T07:15:51;100075.06;;;7.96;100.00
7026;BME280;3554;42.132;24.786;2023-03-13T07:18:19;100074.03;;;8.06;100.00
7026;BME280;3554;42.132;24.786;2023-03-13T07:20:51;100058.69;;;7.90;100.00
7026;BME280;3554;42.132;24.786;2023-03-13T07:23:18;100074.03;;;8.05;100.00
7026;BME280;3554;42.132;24.786;2023-03-13T07:25:52;100073.78;;;8.18;100.00
7026;BME280;3554;42.132;24.786;2023-03-13T07:28:19;100061.50;;;8.23;100.00
7026;BME280;3554;42.132;24.786;2023-03-13T07:30:46;100080.16;;;8.48;100.00
7026;BME280;3554;42.132;24.786;2023-03-13T07:33:13;100080.00;;;8.55;100.00
7026;BME280;3554;42.132;24.786;2023-03-13T07:35:46;100061.03;;;8.49;99.36
7026;BME280;3554;42.132;24.786;2023-03-13T07:38:13;100063.25;;;8.65;96.72
7026;BME280;3554;42.132;24.786;2023-03-13T07:40:46;100077.06;;;8.71;93.94
7026;BME280;3554;42.132;24.786;2023-03-13T07:43:13;100074.00;;;8.92;93.59
7026;BME280;3554;42.132;24.786;2023-03-13T07:45:49;100073.75;;;9.02;91.27
7026;BME280;3554;42.132;24.786;2023-03-13T07:48:16;100070.22;;;9.03;92.80
7026;BME280;3554;42.132;24.786;2023-03-13T07:50:44;100039.81;;;9.02;92.28
7026;BME280;3554;42.132;24.786;2023-03-13T07:53:11;100070.31;;;9.35;90.81
7026;BME280;3554;42.132;24.786;2023-03-13T07:55:38;100066.09;;;9.30;88.63
7026;BME280;3554;42.132;24.786;2023-03-13T07:58:05;100077.25;;;9.38;87.53
7026;BME280;3554;42.132;24.786;2023-03-13T08:00:32;100071.06;;;9.40;88.94
7026;BME280;3554;42.132;24.786;2023-03-13T08:02:58;100066.44;;;9.51;88.35
7026;BME280;3554;42.132;24.786;2023-03-13T08:05:25;100067.63;;;9.38;86.67
7026;BME280;3554;42.132;24.786;2023-03-13T08:07:53;100072.75;;;9.43;87.14
7026;BME280;3554;42.132;24.786;2023-03-13T08:10:20;100063.88;;;9.50;84.92
7026;BME280;3554;42.132;24.786;2023-03-13T08:12:47;100059.25;;;9.59;86.88
7026;BME280;3554;42.132;24.786;2023-03-13T08:15:13;100047.72;;;9.68;84.59
7026;BME280;3554;42.132;24.786;2023-03-13T08:17:40;100051.88;;;9.75;82.23
7026;BME280;3554;42.132;24.786;2023-03-13T08:20:08;100047.53;;;9.74;80.73
7026;BME280;3554;42.132;24.786;2023-03-13T08:22:35;100050.59;;;9.91;79.66
7026;BME280;3554;42.132;24.786;2023-03-13T08:25:04;100031.41;;;9.91;82.46
7026;BME280;3554;42.132;24.786;2023-03-13T08:27:31;100041.47;;;10.04;79.17
7026;BME280;3554;42.132;24.786;2023-03-13T08:29:58;100048.91;;;10.21;78.45
7026;BME280;3554;42.132;24.786;2023-03-13T08:32:24;100036.13;;;10.10;77.30
7026;BME280;3554;42.132;24.786;2023-03-13T08:34:51;100040.19;;;10.20;79.46
7026;BME280;3554;42.132;24.786;2023-03-13T08:37:18;100028.63;;;10.27;79.25
7026;BME280;3554;42.132;24.786;2023-03-13T08:39:45;100040.31;;;10.46;76.30
7026;BME280;3554;42.132;24.786;2023-03-13T08:42:14;100040.38;;;10.43;75.52
7026;BME280;3554;42.132;24.786;2023-03-13T08:44:41;100038.91;;;10.64;72.90
7026;BME280;3554;42.132;24.786;2023-03-13T08:47:07;100021.72;;;10.55;69.48
7026;BME280;3554;42.132;24.786;2023-03-13T08:49:35;100049.66;;;10.82;69.30
7026;BME280;3554;42.132;24.786;2023-03-13T08:52:03;100038.41;;;10.79;67.42
7026;BME280;3554;42.132;24.786;2023-03-13T08:54:30;100045.72;;;10.69;67.15
7026;BME280;3554;42.132;24.786;2023-03-13T08:56:56;100043.19;;;10.94;69.89
7026;BME280;3554;42.132;24.786;2023-03-13T08:59:26;100044.19;;;10.90;68.25
7026;BME280;3554;42.132;24.786;2023-03-13T09:01:53;100048.53;;;10.91;65.81
7026;BME280;3554;42.132;24.786;2023-03-13T09:04:20;100037.09;;;10.94;65.47
7026;BME280;3554;42.132;24.786;2023-03-13T09:06:46;100053.75;;;11.19;63.80
7026;BME280;3554;42.132;24.786;2023-03-13T09:09:13;100050.03;;;11.26;62.52
7026;BME280;3554;42.132;24.786;2023-03-13T09:11:40;100050.31;;;11.43;59.95
7026;BME280;3554;42.132;24.786;2023-03-13T09:14:07;100054.50;;;11.48;60.51
7026;BME280;3554;42.132;24.786;2023-03-13T09:16:37;100054.38;;;11.53;64.11
7026;BME280;3554;42.132;24.786;2023-03-13T09:19:04;100054.56;;;11.21;62.09
7026;BME280;3554;42.132;24.786;2023-03-13T09:21:32;100035.53;;;10.88;62.00
7026;BME280;3554;42.132;24.786;2023-03-13T09:24:00;100040.22;;;10.77;61.20
7026;BME280;3554;42.132;24.786;2023-03-13T09:26:27;100038.31;;;10.54;60.08
7026;BME280;3554;42.132;24.786;2023-03-13T09:28:54;100024.56;;;10.48;62.48
7026;BME280;3554;42.132;24.786;2023-03-13T09:31:23;100035.03;;;10.75;61.52
7026;BME280;3554;42.132;24.786;2023-03-13T09:33:52;100037.81;;;10.42;62.55
7026;BME280;3554;42.132;24.786;2023-03-13T09:36:19;100033.06;;;10.84;63.95
7026;BME280;3554;42.132;24.786;2023-03-13T09:38:46;100033.09;;;11.10;58.58
7026;BME280;3554;42.132;24.786;2023-03-13T09:41:23;100040.72;;;11.17;55.98
7026;BME280;3554;42.132;24.786;2023-03-13T09:43:53;100019.63;;;11.20;57.42
7026;BME280;3554;42.132;24.786;2023-03-13T09:46:24;100009.91;;;11.24;56.55
7026;BME280;3554;42.132;24.786;2023-03-13T09:48:57;100030.38;;;11.39;57.77
7026;BME280;3554;42.132;24.786;2023-03-13T09:51:27;100027.47;;;11.46;54.23
7026;BME280;3554;42.132;24.786;2023-03-13T09:53:58;100023.00;;;11.76;55.08
7026;BME280;3554;42.132;24.786;2023-03-13T09:56:30;100000.16;;;11.79;52.29
7026;BME280;3554;42.132;24.786;2023-03-13T09:59:08;100011.09;;;11.66;51.32
7026;BME280;3554;42.132;24.786;2023-03-13T10:01:38;100009.78;;;11.27;49.64
7026;BME280;3554;42.132;24.786;2023-03-13T10:04:17;100014.16;;;11.02;50.85
7026;BME280;3554;42.132;24.786;2023-03-13T10:06:49;100007.19;;;11.27;50.05
7026;BME280;3554;42.132;24.786;2023-03-13T10:09:18;100015.44;;;11.15;45.24
7026;BME280;3554;42.132;24.786;2023-03-13T10:11:52;99992.34;;;10.73;45.09
7026;BME280;3554;42.132;24.786;2023-03-13T10:14:28;100005.53;;;11.24;44.95
7026;BME280;3554;42.132;24.786;2023-03-13T10:17:01;100002.91;;;11.24;46.55
7026;BME280;3554;42.132;24.786;2023-03-13T10:19:34;99981.28;;;11.44;46.66
7026;BME280;3554;42.132;24.786;2023-03-13T10:22:10;100003.16;;;11.17;42.01
7026;BME280;3554;42.132;24.786;2023-03-13T10:24:42;100006.78;;;11.13;43.06
7026;BME280;3554;42.132;24.786;2023-03-13T10:27:13;100003.38;;;11.37;41.96
7026;BME280;3554;42.132;24.786;2023-03-13T10:29:40;100000.38;;;11.47;38.55
7026;BME280;3554;42.132;24.786;2023-03-13T10:32:10;99997.28;;;11.61;36.07
7026;BME280;3554;42.132;24.786;2023-03-13T10:34:49;99945.06;;;11.55;37.33
7026;BME280;3554;42.132;24.786;2023-03-13T10:37:21;99988.44;;;12.13;37.82
7026;BME280;3554;42.132;24.786;2023-03-13T10:39:47;99989.22;;;11.92;36.85
7026;BME280;3554;42.132;24.786;2023-03-13T10:42:20;99977.16;;;11.86;38.49
7026;BME280;3554;42.132;24.786;2023-03-13T10:44:48;99987.84;;;11.81;37.79
7026;BME280;3554;42.132;24.786;2023-03-13T10:47:15;99984.84;;;11.41;36.40
7026;BME280;3554;42.132;24.786;2023-03-13T10:49:49;99976.16;;;11.41;37.98
7026;BME280;3554;42.132;24.786;2023-03-13T10:52:29;99967.53;;;11.62;37.90
7026;BME280;3554;42.132;24.786;2023-03-13T10:54:59;99968.97;;;11.95;38.37
7026;BME280;3554;42.132;24.786;2023-03-13T10:57:30;99968.91;;;11.97;37.10
7026;BME280;3554;42.132;24.786;2023-03-13T10:59:58;99961.91;;;11.97;36.99
7026;BME280;3554;42.132;24.786;2023-03-13T11:02:27;99954.50;;;12.08;37.71
7026;BME280;3554;42.132;24.786;2023-03-13T11:04:55;99956.88;;;12.14;36.50
7026;BME280;3554;42.132;24.786;2023-03-13T11:07:29;99937.28;;;11.78;35.89
7026;BME280;3554;42.132;24.786;2023-03-13T11:09:59;99949.78;;;11.70;35.76
7026;BME280;3554;42.132;24.786;2023-03-13T11:12:27;99951.13;;;11.81;35.74
7026;BME280;3554;42.132;24.786;2023-03-13T11:14:57;99941.66;;;12.01;36.03
7026;BME280;3554;42.132;24.786;2023-03-13T11:17:31;99946.94;;;11.76;33.46
7026;BME280;3554;42.132;24.786;2023-03-13T11:20:10;99942.53;;;12.01;32.96
7026;BME280;3554;42.132;24.786;2023-03-13T11:22:49;99900.41;;;12.04;33.68
7026;BME280;3554;42.132;24.786;2023-03-13T11:25:27;99944.16;;;12.27;33.07
7026;BME280;3554;42.132;24.786;2023-03-13T11:28:06;99930.13;;;11.81;33.11
7026;BME280;3554;42.132;24.786;2023-03-13T11:30:46;99923.50;;;11.95;32.85
7026;BME280;3554;42.132;24.786;2023-03-13T11:33:23;99881.94;;;12.07;32.56
7026;BME280;3554;42.132;24.786;2023-03-13T11:35:59;99924.47;;;12.38;32.70
7026;BME280;3554;42.132;24.786;2023-03-13T11:38:32;99915.00;;;12.56;32.55
7026;BME280;3554;42.132;24.786;2023-03-13T11:41:11;99886.59;;;12.65;33.73
7026;BME280;3554;42.132;24.786;2023-03-13T11:43:51;99903.97;;;12.89;34.41
7026;BME280;3554;42.132;24.786;2023-03-13T11:46:27;99888.50;;;12.62;35.46
7026;BME280;3554;42.132;24.786;2023-03-13T11:49:25;99892.03;;;12.61;35.62
7026;BME280;3554;42.132;24.786;2023-03-13T11:52:09;99890.88;;;12.68;36.31
7026;BME280;3554;42.132;24.786;2023-03-13T11:54:49;99889.59;;;12.56;35.40
7026;BME280;3554;42.132;24.786;2023-03-13T11:57:24;99881.00;;;12.73;35.41
7026;BME280;3554;42.132;24.786;2023-03-13T12:00:06;99876.19;;;12.62;34.78
7026;BME280;3554;42.132;24.786;2023-03-13T12:02:43;99876.28;;;12.61;34.35
7026;BME280;3554;42.132;24.786;2023-03-13T12:05:15;99868.53;;;12.36;34.33
7026;BME280;3554;42.132;24.786;2023-03-13T12:07:50;99864.66;;;12.66;34.54
7026;BME280;3554;42.132;24.786;2023-03-13T12:10:21;99858.66;;;12.84;35.49
7026;BME280;3554;42.132;24.786;2023-03-13T12:12:56;99861.50;;;12.58;34.50
7026;BME280;3554;42.132;24.786;2023-03-13T12:15:27;99858.91;;;12.57;34.88
7026;BME280;3554;42.132;24.786;2023-03-13T12:17:58;99856.59;;;12.71;34.75
7026;BME280;3554;42.132;24.786;2023-03-13T12:20:31;99856.44;;;12.96;34.12
7026;BME280;3554;42.132;24.786;2023-03-13T12:23:16;99833.75;;;12.93;33.84
7026;BME280;3554;42.132;24.786;2023-03-13T12:25:47;99857.34;;;12.94;33.25
7026;BME280;3554;42.132;24.786;2023-03-13T12:28:34;99855.06;;;13.07;32.50
7026;BME280;3554;42.132;24.786;2023-03-13T12:31:10;99855.00;;;12.88;31.03
7026;BME280;3554;42.132;24.786;2023-03-13T12:33:43;99856.41;;;12.75;31.71
7026;BME280;3554;42.132;24.786;2023-03-13T12:36:17;99852.03;;;12.76;30.91
7026;BME280;3554;42.132;24.786;2023-03-13T12:38:52;99846.56;;;13.01;32.18
7026;BME280;3554;42.132;24.786;2023-03-13T12:41:23;99791.06;;;12.68;32.51
7026;BME280;3554;42.132;24.786;2023-03-13T12:43:53;99847.88;;;12.90;32.73
7026;BME280;3554;42.132;24.786;2023-03-13T12:46:36;99846.88;;;12.73;33.34
7026;BME280;3554;42.132;24.786;2023-03-13T12:49:19;99851.78;;;13.02;32.85
7026;BME280;3554;42.132;24.786;2023-03-13T12:52:04;99843.66;;;13.08;32.28
7026;BME280;3554;42.132;24.786;2023-03-13T12:54:50;99856.84;;;13.27;32.01
7026;BME280;3554;42.132;24.786;2023-03-13T12:57:54;99851.03;;;12.57;31.94
7026;BME280;3554;42.132;24.786;2023-03-13T13:00:27;99851.31;;;12.29;32.09
7026;BME280;3554;42.132;24.786;2023-03-13T13:03:09;99833.28;;;12.63;32.43
7026;BME280;3554;42.132;24.786;2023-03-13T13:06:01;99839.53;;;12.81;32.75
7026;BME280;3554;42.132;24.786;2023-03-13T13:08:34;99843.94;;;13.01;32.12
7026;BME280;3554;42.132;24.786;2023-03-13T13:17:30;99829.44;;;12.50;32.49
7026;BME280;3554;42.132;24.786;2023-03-13T13:20:31;99832.50;;;12.61;33.41
7026;BME280;3554;42.132;24.786;2023-03-13T13:32:35;99823.56;;;12.85;31.49
7026;BME280;3554;42.132;24.786;2023-03-13T13:35:09;99807.41;;;12.94;31.74
7026;BME280;3554;42.132;24.786;2023-03-13T13:37:44;99814.78;;;13.07;31.70
7026;BME280;3554;42.132;24.786;2023-03-13T13:40:24;99812.25;;;13.05;31.95